createdAt,value
2022-08-09T00:00:14.422Z,38.30
2022-08-09T00:03:10.898Z,38.31
2022-08-09T00:06:19.252Z,38.07
2022-08-09T00:08:37.161Z,38.44
2022-08-09T00:11:24.602Z,38.45
2022-08-09T00:13:53.282Z,38.52
2022-08-09T00:16:26.336Z,38.28
2022-08-09T00:19:09.593Z,38.41
2022-08-09T00:21:55.577Z,38.19
2022-08-09T00:24:27.490Z,38.30
2022-08-09T00:26:56.170Z,38.50
2022-08-09T00:29:39.476Z,38.41
2022-08-09T00:32:25.389Z,38.33
2022-08-09T00:34:56.277Z,38.39
2022-08-09T00:37:25.442Z,38.63
2022-08-09T00:40:12.636Z,38.46
2022-08-09T00:44:15.388Z,38.59
2022-08-09T00:45:28.716Z,38.65
2022-08-09T00:47:56.560Z,38.50
2022-08-09T00:50:24.758Z,38.62
2022-08-09T00:52:53.812Z,38.59
2022-08-09T00:56:03.268Z,38.71
2022-08-09T00:58:09.576Z,38.33
2022-08-09T01:00:43.737Z,38.42
2022-08-09T01:03:17.088Z,38.67
2022-08-09T01:05:55.222Z,38.76
2022-08-09T01:08:33.495Z,38.66
2022-08-09T01:11:08.652Z,38.77
2022-08-09T01:14:00.262Z,38.89
2022-08-09T01:16:36.994Z,38.48
2022-08-09T01:19:42.553Z,38.56
2022-08-09T01:22:54.831Z,38.84
2022-08-09T01:25:51.117Z,38.86
2022-08-09T01:28:22.551Z,38.62
2022-08-09T01:30:58.996Z,38.80
2022-08-09T01:33:34.683Z,38.60
2022-08-09T01:36:11.922Z,38.54
2022-08-09T01:38:46.661Z,38.68
2022-08-09T01:41:18.517Z,38.96
2022-08-09T01:43:55.993Z,38.75
2022-08-09T01:46:33.850Z,38.73
2022-08-09T01:49:23.977Z,38.82
2022-08-09T01:51:57.296Z,38.68
2022-08-09T01:54:32.830Z,38.48
2022-08-09T01:57:10.086Z,38.76
2022-08-09T01:59:51.830Z,38.58
2022-08-09T02:02:31.331Z,38.76
2022-08-09T02:05:15.165Z,38.57
2022-08-09T02:08:39.148Z,38.56
2022-08-09T02:10:51.154Z,38.47
2022-08-09T02:13:25.965Z,38.60
2022-08-09T02:16:07.698Z,38.67
2022-08-09T02:18:38.301Z,38.46
2022-08-09T02:21:21.862Z,38.70
2022-08-09T02:23:54.794Z,38.63
2022-08-09T02:26:27.464Z,38.59
2022-08-09T02:28:59.907Z,38.50
2022-08-09T02:31:35.441Z,38.48
2022-08-09T02:34:13.339Z,38.36
2022-08-09T02:36:46.665Z,38.29
2022-08-09T02:39:33.372Z,38.39
2022-08-09T02:42:16.789Z,38.53
2022-08-09T02:44:52.841Z,38.48
2022-08-09T02:47:23.430Z,38.30
2022-08-09T02:50:02.062Z,38.34
2022-08-09T02:52:38.456Z,38.32
2022-08-09T02:55:19.857Z,38.51
2022-08-09T02:58:00.762Z,38.43
2022-08-09T03:00:57.626Z,38.27
2022-08-09T03:04:05.757Z,38.47
2022-08-09T03:06:17.451Z,38.34
2022-08-09T03:08:46.572Z,38.49
2022-08-09T03:12:04.610Z,38.24
2022-08-09T03:14:06.474Z,38.40
2022-08-09T03:16:41.671Z,38.43
2022-08-09T03:19:14.585Z,38.46
2022-08-09T03:22:03.151Z,38.12
2022-08-09T03:24:42.764Z,38.02
2022-08-09T03:27:21.526Z,38.42
2022-08-09T03:30:00.998Z,38.41
2022-08-09T03:32:34.779Z,38.25
2022-08-09T03:35:15.116Z,37.99
2022-08-09T03:37:55.916Z,38.13
2022-08-09T03:40:30.855Z,38.38
2022-08-09T03:42:58.737Z,38.45
2022-08-09T03:46:04.251Z,38.39
2022-08-09T03:48:19.097Z,38.41
2022-08-09T03:50:59.745Z,38.19
2022-08-09T03:53:32.348Z,38.26
2022-08-09T03:56:05.679Z,38.12
2022-08-09T03:58:33.582Z,38.27
2022-08-09T04:01:02.470Z,38.03
2022-08-09T04:03:46.467Z,38.12
2022-08-09T04:06:19.074Z,38.19
2022-08-09T04:08:48.253Z,38.33
2022-08-09T04:11:21.250Z,38.12
2022-08-09T04:14:53.016Z,37.99
2022-08-09T04:16:40.012Z,38.13
2022-08-09T04:19:11.115Z,38.33
2022-08-09T04:21:45.265Z,38.06
2022-08-09T04:24:15.041Z,38.07
2022-08-09T04:26:42.580Z,38.26
2022-08-09T04:29:14.827Z,38.18
2022-08-09T04:31:47.352Z,38.29
2022-08-09T04:34:18.838Z,38.34
2022-08-09T04:36:50.287Z,38.20
2022-08-09T04:39:18.240Z,38.01
2022-08-09T04:41:46.425Z,37.92
2022-08-09T04:44:14.759Z,38.15
2022-08-09T04:46:59.544Z,38.24
2022-08-09T04:49:52.883Z,37.96
2022-08-09T04:52:27.035Z,37.74
2022-08-09T04:54:56.066Z,37.90
2022-08-09T04:57:25.232Z,38.15
2022-08-09T04:59:55.337Z,38.45
2022-08-09T05:02:27.116Z,38.36
2022-08-09T05:04:56.185Z,38.67
2022-08-09T05:07:25.074Z,38.58
2022-08-09T05:09:57.691Z,39.00
2022-08-09T05:12:29.892Z,39.13
2022-08-09T05:14:58.709Z,38.96
2022-08-09T05:18:39.766Z,39.19
2022-08-09T05:20:13.771Z,39.28
2022-08-09T05:23:53.988Z,39.32
2022-08-09T05:25:32.519Z,39.48
2022-08-09T05:28:00.211Z,39.24
2022-08-09T05:30:30.146Z,39.25
2022-08-09T05:33:00.715Z,39.34
2022-08-09T05:35:30.352Z,39.64
2022-08-09T05:38:06.586Z,39.54
2022-08-09T05:40:35.700Z,39.77
2022-08-09T05:43:04.584Z,39.81
2022-08-09T05:45:43.618Z,39.83
2022-08-09T05:48:19.601Z,39.72
2022-08-09T05:51:30.270Z,39.96
2022-08-09T05:53:56.785Z,39.69
2022-08-09T05:56:28.093Z,40.02
2022-08-09T05:58:58.475Z,39.79
2022-08-09T06:01:33.984Z,40.17
2022-08-09T06:04:12.123Z,39.93
2022-08-09T06:06:45.165Z,39.92
2022-08-09T06:09:53.825Z,40.37
2022-08-09T06:12:06.936Z,39.80
2022-08-09T06:14:35.489Z,39.98
2022-08-09T06:17:09.184Z,39.68
2022-08-09T06:19:37.673Z,39.69
2022-08-09T06:22:06.759Z,39.75
2022-08-09T06:24:42.854Z,40.05
2022-08-09T06:27:10.309Z,39.61
2022-08-09T06:29:47.673Z,39.73
2022-08-09T06:32:59.557Z,39.53
2022-08-09T06:35:13.318Z,39.65
2022-08-09T06:37:52.871Z,39.92
2022-08-09T06:40:28.767Z,39.63
2022-08-09T06:42:58.025Z,39.49
2022-08-09T06:46:07.249Z,39.33
2022-08-09T06:48:16.398Z,39.14
2022-08-09T06:50:44.767Z,39.22
2022-08-09T06:53:13.748Z,39.19
2022-08-09T06:55:41.709Z,39.28
2022-08-09T07:00:49.027Z,39.23
2022-08-09T07:01:03.441Z,38.76
2022-08-09T07:03:39.334Z,38.37
2022-08-09T07:06:07.758Z,38.20
2022-08-09T07:08:37.243Z,38.42
2022-08-09T07:11:07.999Z,37.67
2022-08-09T07:13:45.045Z,37.68
2022-08-09T07:16:39.439Z,37.67
2022-08-09T07:19:15.419Z,37.43
2022-08-09T07:21:55.890Z,37.06
2022-08-09T07:24:32.861Z,38.15
2022-08-09T07:27:26.485Z,37.42
2022-08-09T07:29:59.868Z,37.49
2022-08-09T07:32:32.589Z,37.59
2022-08-09T07:35:10.794Z,37.58
2022-08-09T07:37:45.649Z,37.92
2022-08-09T07:40:17.468Z,37.81
2022-08-09T07:42:56.150Z,37.75
2022-08-09T07:45:39.244Z,37.67
2022-08-09T07:48:25.383Z,37.94
2022-08-09T07:51:09.328Z,38.19
2022-08-09T07:54:06.607Z,37.75
2022-08-09T07:56:39.031Z,37.51
2022-08-09T07:59:34.599Z,37.69
2022-08-09T08:02:04.812Z,37.82
2022-08-09T08:04:34.187Z,37.76
2022-08-09T08:07:15.198Z,37.41
2022-08-09T08:10:08.348Z,36.89
2022-08-09T08:12:43.647Z,37.25
2022-08-09T08:15:24.358Z,36.72
2022-08-09T08:17:58.022Z,36.35
2022-08-09T08:20:30.408Z,36.97
2022-08-09T08:23:06.706Z,36.10
2022-08-09T08:25:48.287Z,36.24
2022-08-09T08:28:18.137Z,35.88
2022-08-09T08:30:53.949Z,35.69
2022-08-09T08:33:24.098Z,35.60
2022-08-09T08:35:59.642Z,35.30
2022-08-09T08:38:29.411Z,35.60
2022-08-09T08:40:57.958Z,35.56
2022-08-09T08:43:27.870Z,35.53
2022-08-09T08:46:09.872Z,35.25
2022-08-09T08:48:53.609Z,35.46
2022-08-09T08:51:23.186Z,35.45
2022-08-09T08:54:03.515Z,35.25
2022-08-09T08:56:39.882Z,35.32
2022-08-09T08:59:19.251Z,34.41
2022-08-09T09:01:52.931Z,34.80
2022-08-09T09:04:41.171Z,35.20
2022-08-09T09:07:15.811Z,33.88
2022-08-09T09:10:02.238Z,34.64
2022-08-09T09:12:35.630Z,34.38
2022-08-09T09:15:06.420Z,34.61
2022-08-09T09:17:49.243Z,34.75
2022-08-09T09:20:21.380Z,33.80
2022-08-09T09:22:57.310Z,33.63
2022-08-09T09:26:03.773Z,33.67
2022-08-09T09:29:02.112Z,33.48
2022-08-09T09:32:03.861Z,33.86
2022-08-09T09:34:14.486Z,34.21
2022-08-09T09:36:50.940Z,33.86
2022-08-09T09:39:25.753Z,33.71
2022-08-09T09:42:24.420Z,34.08
2022-08-09T09:45:03.371Z,34.05
2022-08-09T09:47:32.540Z,34.23
2022-08-09T09:50:14.731Z,34.12
2022-08-09T09:52:54.425Z,34.38
2022-08-09T09:55:31.396Z,33.95
2022-08-09T09:58:16.188Z,33.71
2022-08-09T10:00:58.905Z,33.73
2022-08-09T10:03:43.588Z,33.31
2022-08-09T10:06:12.991Z,33.72
2022-08-09T10:08:54.936Z,33.56
2022-08-09T10:12:00.527Z,33.97
2022-08-09T10:14:33.165Z,34.10
2022-08-09T10:17:40.407Z,33.45
2022-08-09T10:20:00.446Z,33.72
2022-08-09T10:22:48.197Z,33.72
2022-08-09T10:25:15.732Z,33.94
2022-08-09T10:27:55.891Z,34.45
2022-08-09T10:33:29.950Z,34.78
2022-08-09T10:36:09.657Z,34.45
2022-08-09T10:38:56.070Z,34.51
2022-08-09T10:41:25.094Z,34.65
2022-08-09T10:44:01.035Z,35.07
2022-08-09T10:46:57.200Z,34.57
2022-08-09T10:49:51.366Z,34.58
2022-08-09T10:52:44.764Z,34.84
2022-08-09T10:55:26.725Z,34.48
2022-08-09T10:58:00.451Z,34.81
2022-08-09T11:00:31.344Z,34.15
2022-08-09T11:03:14.102Z,34.18
2022-08-09T11:06:26.223Z,34.16
2022-08-09T11:08:54.176Z,33.99
2022-08-09T11:11:24.449Z,34.02
2022-08-09T11:14:31.812Z,34.14
2022-08-09T11:17:00.151Z,33.89
2022-08-09T11:20:10.081Z,33.62
2022-08-09T11:22:55.589Z,33.34
2022-08-09T11:25:44.575Z,33.24
2022-08-09T11:28:34.684Z,33.08
2022-08-09T11:31:48.683Z,33.13
2022-08-09T11:34:21.942Z,33.33
2022-08-09T11:36:50.578Z,33.24
2022-08-09T11:39:18.964Z,33.30
2022-08-09T11:41:48.883Z,33.82
2022-08-09T11:44:16.521Z,33.96
2022-08-09T11:46:57.199Z,33.65
2022-08-09T11:50:55.786Z,33.43
2022-08-09T11:53:16.425Z,33.75
2022-08-09T11:55:53.878Z,33.82
2022-08-09T11:58:33.147Z,34.47
2022-08-09T12:01:08.757Z,34.30
2022-08-09T12:03:57.272Z,33.80
2022-08-09T12:06:31.987Z,33.97
2022-08-09T12:09:03.625Z,33.91
2022-08-09T12:11:37.845Z,34.08
2022-08-09T12:14:36.747Z,33.97
2022-08-09T12:17:27.877Z,34.45
2022-08-09T12:20:03.786Z,34.35
2022-08-09T12:22:32.022Z,34.26
2022-08-09T12:25:14.929Z,34.11
2022-08-09T12:28:58.185Z,34.28
2022-08-09T12:30:35.343Z,34.10
2022-08-09T12:33:07.313Z,33.98
2022-08-09T12:35:40.121Z,34.11
2022-08-09T12:38:37.886Z,34.36
2022-08-09T12:41:07.205Z,34.14
2022-08-09T12:44:05.930Z,34.48
2022-08-09T12:46:25.384Z,34.31
2022-08-09T12:48:55.438Z,33.99
2022-08-09T12:51:52.828Z,34.18
2022-08-09T12:54:14.093Z,34.29
2022-08-09T12:56:50.965Z,34.50
2022-08-09T12:59:21.733Z,34.67
2022-08-09T13:02:09.895Z,34.46
2022-08-09T13:04:38.927Z,34.44
2022-08-09T13:07:19.334Z,34.20
2022-08-09T13:10:01.212Z,34.23
2022-08-09T13:12:29.575Z,34.05
2022-08-09T13:15:09.058Z,34.20
2022-08-09T13:18:03.319Z,34.54
2022-08-09T13:20:37.372Z,34.55
2022-08-09T13:24:16.028Z,34.32
2022-08-09T13:26:06.691Z,34.32
2022-08-09T13:28:39.771Z,34.48
2022-08-09T13:32:20.168Z,34.62
2022-08-09T13:33:59.931Z,34.44
2022-08-09T13:36:40.440Z,34.62
2022-08-09T13:41:17.423Z,34.96
2022-08-09T13:42:12.773Z,34.50
2022-08-09T13:44:42.844Z,34.35
2022-08-09T13:47:26.412Z,34.68
2022-08-09T13:50:01.808Z,34.64
2022-08-09T13:52:30.799Z,34.62
2022-08-09T13:54:59.287Z,34.76
2022-08-09T13:57:36.555Z,34.75
2022-08-09T14:00:15.834Z,34.94
2022-08-09T14:03:04.297Z,34.61
2022-08-09T14:05:56.892Z,34.67
2022-08-09T14:08:22.315Z,34.69
2022-08-09T14:10:52.968Z,34.70
2022-08-09T14:14:14.818Z,34.40
2022-08-09T14:16:14.063Z,34.45
2022-08-09T14:18:49.656Z,34.76
2022-08-09T14:21:23.384Z,34.86
2022-08-09T14:23:56.251Z,34.55
2022-08-09T14:26:32.890Z,34.61
2022-08-09T14:29:07.918Z,34.61
2022-08-09T14:31:54.527Z,34.54
2022-08-09T14:34:31.423Z,34.67
2022-08-09T14:37:02.852Z,34.83
2022-08-09T14:39:45.620Z,34.96
2022-08-09T14:42:40.650Z,35.03
2022-08-09T14:46:39.361Z,35.35
2022-08-09T14:48:00.194Z,35.46
2022-08-09T14:50:32.442Z,35.44
2022-08-09T14:53:01.950Z,35.63
2022-08-09T14:55:32.527Z,35.53
2022-08-09T14:58:02.971Z,35.51
2022-08-09T15:00:34.179Z,35.83
2022-08-09T15:03:08.085Z,35.72
2022-08-09T15:05:37.405Z,35.96
2022-08-09T15:08:06.128Z,35.82
2022-08-09T15:10:38.380Z,35.93
2022-08-09T15:13:08.981Z,35.82
2022-08-09T15:15:39.234Z,35.83
2022-08-09T15:18:12.357Z,35.72
2022-08-09T15:21:57.232Z,35.79
2022-08-09T15:24:01.406Z,35.49
2022-08-09T15:26:28.374Z,35.63
2022-08-09T15:29:04.001Z,35.56
2022-08-09T15:31:40.755Z,35.78
2022-08-09T15:34:32.837Z,35.95
2022-08-09T15:36:58.278Z,35.42
2022-08-09T15:39:34.789Z,35.53
2022-08-09T15:42:14.996Z,35.59
2022-08-09T15:44:42.917Z,35.53
2022-08-09T15:47:14.531Z,35.68
2022-08-09T15:50:03.746Z,35.99
2022-08-09T15:52:38.134Z,35.81
2022-08-09T15:55:09.494Z,35.82
2022-08-09T15:57:44.358Z,36.22
2022-08-09T16:00:25.386Z,35.92
2022-08-09T16:02:56.217Z,36.17
2022-08-09T16:05:47.619Z,36.08
2022-08-09T16:08:29.663Z,36.07
2022-08-09T16:11:03.246Z,35.96
2022-08-09T16:14:05.334Z,36.04
2022-08-09T16:16:19.319Z,36.05
2022-08-09T16:18:47.714Z,36.06
2022-08-09T16:21:17.805Z,36.19
2022-08-09T16:23:55.729Z,35.88
2022-08-09T16:26:33.827Z,35.90
2022-08-09T16:29:11.085Z,35.84
2022-08-09T16:32:17.662Z,35.77
2022-08-09T16:34:56.060Z,36.21
2022-08-09T16:37:54.992Z,36.25
2022-08-09T16:40:11.228Z,35.96
2022-08-09T16:42:44.985Z,35.94
2022-08-09T16:45:18.619Z,36.10
2022-08-09T16:48:50.500Z,35.48
2022-08-09T16:50:38.455Z,35.98
2022-08-09T16:53:08.710Z,35.61
2022-08-09T16:55:58.254Z,35.91
2022-08-09T16:58:27.128Z,35.87
2022-08-09T17:00:55.113Z,35.62
2022-08-09T17:03:23.807Z,35.96
2022-08-09T17:06:07.239Z,35.78
2022-08-09T17:09:01.576Z,36.07
2022-08-09T17:11:40.256Z,36.00
2022-08-09T17:14:25.730Z,35.91
2022-08-09T17:17:02.855Z,35.96
2022-08-09T17:20:06.164Z,35.88
2022-08-09T17:22:24.811Z,36.19
2022-08-09T17:25:02.989Z,35.99
2022-08-09T17:27:33.587Z,35.75
2022-08-09T17:30:04.906Z,36.14
2022-08-09T17:32:37.768Z,36.01
2022-08-09T17:35:12.155Z,36.19
2022-08-09T17:38:02.763Z,36.13
2022-08-09T17:40:32.128Z,35.87
2022-08-09T17:43:10.902Z,36.26
2022-08-09T17:46:04.284Z,36.02
2022-08-09T17:48:38.506Z,36.02
2022-08-09T17:51:18.526Z,35.87
2022-08-09T17:53:54.709Z,36.01
2022-08-09T17:56:26.602Z,35.90
2022-08-09T17:58:57.659Z,35.97
2022-08-09T18:01:25.407Z,35.86
2022-08-09T18:04:08.984Z,36.19
2022-08-09T18:06:37.903Z,36.28
2022-08-09T18:09:06.580Z,36.18
2022-08-09T18:12:05.611Z,36.57
2022-08-09T18:14:27.090Z,36.84
2022-08-09T18:16:54.644Z,36.70
2022-08-09T18:20:56.018Z,36.65
2022-08-09T18:22:13.347Z,37.00
2022-08-09T18:24:47.769Z,37.04
2022-08-09T18:27:49.372Z,36.66
2022-08-09T18:30:38.265Z,36.69
2022-08-09T18:32:54.087Z,36.88
2022-08-09T18:35:59.556Z,36.92
2022-08-09T18:38:12.619Z,36.74
2022-08-09T18:40:43.047Z,36.75
2022-08-09T18:43:13.137Z,36.52
2022-08-09T18:46:50.843Z,36.85
2022-08-09T18:48:32.718Z,36.63
2022-08-09T18:51:01.321Z,36.81
2022-08-09T18:53:56.528Z,36.72
2022-08-09T18:56:20.044Z,36.68
2022-08-09T18:58:56.665Z,36.79
2022-08-09T19:01:25.891Z,36.65
2022-08-09T19:04:06.153Z,36.65
2022-08-09T19:06:38.414Z,36.46
2022-08-09T19:09:07.591Z,36.97
2022-08-09T19:11:38.686Z,36.89
2022-08-09T19:14:09.166Z,36.68
2022-08-09T19:16:37.909Z,36.42
2022-08-09T19:19:21.355Z,36.66
2022-08-09T19:22:06.642Z,36.68
2022-08-09T19:25:09.526Z,36.61
2022-08-09T19:27:28.642Z,36.92
2022-08-09T19:30:22.344Z,36.54
2022-08-09T19:32:44.845Z,36.91
2022-08-09T19:35:12.446Z,36.60
2022-08-09T19:37:54.408Z,36.89
2022-08-09T19:40:33.384Z,36.81
2022-08-09T19:43:05.351Z,37.04
2022-08-09T19:45:38.944Z,36.69
2022-08-09T19:48:10.760Z,36.86
2022-08-09T19:50:48.901Z,36.87
2022-08-09T19:53:20.656Z,36.77
2022-08-09T19:56:03.261Z,36.85
2022-08-09T19:58:34.868Z,37.00
2022-08-09T20:01:04.094Z,36.79
2022-08-09T20:04:18.360Z,37.05
2022-08-09T20:06:22.447Z,37.01
2022-08-09T20:08:56.666Z,37.04
2022-08-09T20:11:26.853Z,36.76
2022-08-09T20:13:56.112Z,36.74
2022-08-09T20:16:34.502Z,36.71
2022-08-09T20:19:49.235Z,37.01
2022-08-09T20:21:57.463Z,37.10
2022-08-09T20:24:31.776Z,36.93
2022-08-09T20:27:05.697Z,37.08
2022-08-09T20:29:38.640Z,36.79
2022-08-09T20:32:29.332Z,36.87
2022-08-09T20:34:59.690Z,37.10
2022-08-09T20:38:19.096Z,36.89
2022-08-09T20:40:24.837Z,36.75
2022-08-09T20:43:12.026Z,37.01
2022-08-09T20:46:00.038Z,37.16
2022-08-09T20:48:31.251Z,37.15
2022-08-09T20:51:03.126Z,37.08
2022-08-09T20:53:37.288Z,37.19
2022-08-09T20:56:08.856Z,37.07
2022-08-09T20:58:38.014Z,37.23
2022-08-09T21:01:32.662Z,37.13
2022-08-09T21:04:07.868Z,37.11
2022-08-09T21:06:44.073Z,37.17
2022-08-09T21:09:13.876Z,37.31
2022-08-09T21:14:31.615Z,37.07
2022-08-09T21:17:00.355Z,37.10
2022-08-09T21:20:18.716Z,37.31
2022-08-09T21:22:35.716Z,37.19
2022-08-09T21:25:22.325Z,37.15
2022-08-09T21:27:53.461Z,37.34
2022-08-09T21:30:23.956Z,37.66
2022-08-09T21:32:53.181Z,37.34
2022-08-09T21:35:21.879Z,37.62
2022-08-09T21:37:58.838Z,37.37
2022-08-09T21:40:30.442Z,37.61
2022-08-09T21:42:59.724Z,37.28
2022-08-09T21:45:28.551Z,37.43
2022-08-09T21:47:58.994Z,37.74
2022-08-09T21:50:39.010Z,37.64
2022-08-09T21:53:23.824Z,37.71
2022-08-09T21:55:58.486Z,37.50
2022-08-09T21:58:29.237Z,37.67
2022-08-09T22:00:59.680Z,38.05
2022-08-09T22:03:28.179Z,37.75
2022-08-09T22:05:57.845Z,37.74
2022-08-09T22:08:26.058Z,37.89
2022-08-09T22:11:49.670Z,37.89
2022-08-09T22:13:45.749Z,37.83
2022-08-09T22:16:13.421Z,37.80
2022-08-09T22:18:53.543Z,38.26
2022-08-09T22:21:27.349Z,37.93
2022-08-09T22:24:17.087Z,38.12
2022-08-09T22:26:51.147Z,38.14
2022-08-09T22:29:24.048Z,38.46
2022-08-09T22:31:57.972Z,38.22
2022-08-09T22:34:26.833Z,38.21
2022-08-09T22:36:55.995Z,38.28
2022-08-09T22:39:57.070Z,38.24
2022-08-09T22:42:21.023Z,38.16
2022-08-09T22:45:00.376Z,38.48
2022-08-09T22:48:30.228Z,38.37
2022-08-09T22:50:32.199Z,38.12
2022-08-09T22:53:03.741Z,38.56
2022-08-09T22:56:06.500Z,38.39
2022-08-09T22:58:32.361Z,38.52
2022-08-09T23:01:03.173Z,38.30
2022-08-09T23:04:05.627Z,38.43
2022-08-09T23:06:29.865Z,38.28
2022-08-09T23:09:06.333Z,38.36
2022-08-09T23:11:34.400Z,38.56
2022-08-09T23:14:03.553Z,38.39
2022-08-09T23:16:31.922Z,38.63
2022-08-09T23:18:59.937Z,38.64
2022-08-09T23:21:33.258Z,38.60
2022-08-09T23:24:06.090Z,38.56
2022-08-09T23:26:38.709Z,38.65
2022-08-09T23:29:09.989Z,38.59
2022-08-09T23:31:37.673Z,38.46
2022-08-09T23:34:05.533Z,38.38
2022-08-09T23:36:34.788Z,38.59
2022-08-09T23:39:04.878Z,38.56
2022-08-09T23:41:32.684Z,38.57
2022-08-09T23:44:01.875Z,38.63
2022-08-09T23:46:31.319Z,38.54
2022-08-09T23:49:00.008Z,38.61
2022-08-09T23:51:28.174Z,38.62
2022-08-09T23:54:02.608Z,38.50
2022-08-09T23:56:52.323Z,38.73
2022-08-09T23:59:21.364Z,38.62
